Time;durP1;ratioP1;P1;durP2;ratioP2;P2;SDS_P1;SDS_P2;PMS_P1;PMS_P2;Temp;Humidity;BMP_temperature;BMP_pressure;BME280_temperature;BME280_humidity;BME280_pressure;Samples;Min_cycle;Max_cycle;Signal;HPM_P1;HPM_P2
2024/01/26 00:00:05;;;;;;;9.43;6.85;;;10.60;99.90;;;;;;4139908;28;20494;-79
2024/01/26 00:02:05;;;;;;;10.73;7.97;;;10.60;99.90;;;;;;4142161;28;20026;-78
2024/01/26 00:04:06;;;;;;;13.02;8.32;;;10.60;99.90;;;;;;4159266;28;20414;-79
2024/01/26 00:06:06;;;;;;;11.48;7.63;;;10.60;99.90;;;;;;4157471;28;20045;-79
2024/01/26 00:08:07;;;;;;;10.98;7.97;;;10.60;99.90;;;;;;4140798;28;20045;-79
2024/01/26 00:10:08;;;;;;;9.90;7.40;;;10.70;99.90;;;;;;4156945;28;20029;-78
2024/01/26 00:12:08;;;;;;;13.55;8.88;;;10.70;99.90;;;;;;4158117;28;20033;-79
2024/01/26 00:14:09;;;;;;;14.13;8.02;;;10.70;99.90;;;;;;4158663;28;20037;-80
2024/01/26 00:16:10;;;;;;;11.75;8.05;;;10.60;99.90;;;;;;4139148;28;20034;-79
2024/01/26 00:18:10;;;;;;;13.00;8.32;;;10.70;99.90;;;;;;4159386;28;20384;-80
2024/01/26 00:20:11;;;;;;;13.55;8.82;;;10.70;99.90;;;;;;4158024;28;20084;-79
2024/01/26 00:22:11;;;;;;;12.98;8.50;;;10.70;99.90;;;;;;4157532;28;20120;-79
2024/01/26 00:24:12;;;;;;;13.10;8.98;;;10.70;99.90;;;;;;4142823;28;20538;-79
2024/01/26 00:26:13;;;;;;;11.55;8.15;;;10.70;99.90;;;;;;4151787;28;20770;-79
2024/01/26 00:28:14;;;;;;;12.75;8.07;;;10.70;99.90;;;;;;4159386;28;20506;-78
2024/01/26 00:30:15;;;;;;;16.90;8.13;;;10.70;99.90;;;;;;4152276;28;20030;-77
2024/01/26 00:32:15;;;;;;;12.90;9.40;;;10.70;99.90;;;;;;4153828;28;20034;-79
2024/01/26 00:34:16;;;;;;;13.27;9.20;;;10.70;99.90;;;;;;4156334;28;20441;-78
2024/01/26 00:36:17;;;;;;;11.43;8.43;;;10.70;99.90;;;;;;4138429;28;20516;-77
2024/01/26 00:38:17;;;;;;;13.65;8.80;;;10.80;99.90;;;;;;4136265;28;20598;-76
2024/01/26 00:40:18;;;;;;;13.05;8.80;;;10.80;99.90;;;;;;4139268;28;20026;-76
2024/01/26 00:42:19;;;;;;;13.77;9.48;;;10.70;99.90;;;;;;4136489;28;20088;-76
2024/01/26 00:44:19;;;;;;;13.77;9.25;;;10.70;99.90;;;;;;4152096;28;20040;-75
2024/01/26 00:46:21;;;;;;;12.45;8.70;;;10.70;99.90;;;;;;4153583;28;20041;-76
2024/01/26 00:48:21;;;;;;;15.20;9.15;;;10.70;99.90;;;;;;4156522;28;20030;-78
2024/01/26 00:50:22;;;;;;;13.05;8.85;;;10.80;99.90;;;;;;4143513;28;20046;-78
2024/01/26 00:52:22;;;;;;;12.35;8.38;;;10.80;99.90;;;;;;4152998;28;20066;-78
2024/01/26 00:54:23;;;;;;;11.23;8.32;;;10.80;99.90;;;;;;4157094;28;20407;-78
2024/01/26 00:56:24;;;;;;;12.48;8.68;;;10.80;99.90;;;;;;4159908;28;20117;-78
2024/01/26 00:58:24;;;;;;;11.50;8.93;;;10.80;99.90;;;;;;4158854;28;20115;-78
2024/01/26 01:00:26;;;;;;;12.63;9.43;;;10.80;99.90;;;;;;4157074;28;20087;-78
2024/01/26 01:02:26;;;;;;;12.55;7.75;;;10.80;99.90;;;;;;4139057;28;20054;-78
2024/01/26 01:04:30;;;;;;;11.23;7.95;;;10.80;99.90;;;;;;4159149;28;20475;-78
2024/01/26 01:06:31;;;;;;;10.15;7.70;;;10.80;99.90;;;;;;4157829;28;20120;-78
2024/01/26 01:08:32;;;;;;;12.68;8.52;;;10.80;99.90;;;;;;4157152;28;20029;-78
2024/01/26 01:10:32;;;;;;;11.85;8.88;;;10.80;99.90;;;;;;4138926;28;20594;-77
2024/01/26 01:12:33;;;;;;;12.68;8.90;;;10.80;99.90;;;;;;4158612;28;20053;-78
2024/01/26 01:14:36;;;;;;;13.18;9.52;;;10.80;99.90;;;;;;4156955;28;20376;-78
2024/01/26 01:16:39;;;;;;;11.20;7.97;;;10.80;99.90;;;;;;4159364;28;20514;-78
2024/01/26 01:18:40;;;;;;;13.15;8.82;;;10.80;99.90;;;;;;4159189;28;20051;-78
2024/01/26 01:20:40;;;;;;;12.60;9.07;;;10.80;99.90;;;;;;4138665;28;20116;-78
2024/01/26 01:22:42;;;;;;;10.73;8.18;;;10.80;99.90;;;;;;4156553;28;20076;-78
2024/01/26 01:24:43;;;;;;;11.05;8.43;;;10.80;99.90;;;;;;4161111;28;20034;-78
2024/01/26 01:26:43;;;;;;;11.13;7.90;;;10.80;99.90;;;;;;4155843;28;20502;-78
2024/01/26 01:28:44;;;;;;;14.82;9.05;;;10.90;99.90;;;;;;4164142;28;20025;-78
2024/01/26 01:30:44;;;;;;;11.07;8.02;;;10.80;99.90;;;;;;4155328;28;20034;-78
2024/01/26 01:32:45;;;;;;;14.35;8.88;;;10.90;99.90;;;;;;4155678;28;20057;-79
2024/01/26 01:34:45;;;;;;;13.10;8.57;;;10.90;99.90;;;;;;4159693;28;20038;-78
2024/01/26 01:36:46;;;;;;;12.57;7.85;;;10.90;99.90;;;;;;4154714;28;20490;-78
2024/01/26 01:38:47;;;;;;;13.27;8.95;;;10.90;99.90;;;;;;4163760;28;20115;-78
2024/01/26 01:40:47;;;;;;;11.25;8.57;;;10.90;99.90;;;;;;4119699;28;20030;-78
2024/01/26 01:42:48;;;;;;;10.52;7.68;;;10.90;99.90;;;;;;4140766;28;20064;-78
2024/01/26 01:44:48;;;;;;;14.02;9.90;;;10.90;99.90;;;;;;4143437;28;20393;-78
2024/01/26 01:46:49;;;;;;;12.60;7.95;;;10.90;99.90;;;;;;4156969;28;20036;-79
2024/01/26 01:48:50;;;;;;;10.65;7.70;;;10.90;99.90;;;;;;4159018;28;20030;-76
2024/01/26 01:50:51;;;;;;;12.23;8.35;;;10.90;99.90;;;;;;4158045;28;20482;-77
2024/01/26 01:52:55;;;;;;;13.88;9.13;;;10.90;99.90;;;;;;4139913;28;20034;-77
2024/01/26 01:54:58;;;;;;;10.65;8.20;;;10.90;99.90;;;;;;4139744;28;20545;-76
2024/01/26 01:57:02;;;;;;;9.75;7.95;;;11.00;99.90;;;;;;4139548;28;20042;-79
2024/01/26 01:59:03;;;;;;;11.38;7.88;;;11.00;99.90;;;;;;4142659;28;20046;-79
2024/01/26 02:01:04;;;;;;;10.93;8.20;;;11.00;99.90;;;;;;4138614;28;20561;-79
2024/01/26 02:03:05;;;;;;;9.32;7.55;;;11.00;99.90;;;;;;4139461;28;20030;-79
2024/01/26 02:05:05;;;;;;;12.68;8.05;;;11.00;99.90;;;;;;4142191;28;20034;-78
2024/01/26 02:07:06;;;;;;;11.20;8.38;;;11.00;99.90;;;;;;4139685;28;20588;-79
2024/01/26 02:09:07;;;;;;;10.00;8.15;;;11.00;99.90;;;;;;4140007;28;20407;-79
2024/01/26 02:11:07;;;;;;;14.77;8.25;;;11.00;99.90;;;;;;4135619;28;20018;-79
2024/01/26 02:13:08;;;;;;;9.70;7.90;;;11.00;99.90;;;;;;4136647;28;20068;-79
2024/01/26 02:15:09;;;;;;;10.13;7.85;;;11.00;99.90;;;;;;4142094;28;20487;-79
2024/01/26 02:17:09;;;;;;;11.45;8.52;;;11.00;99.90;;;;;;4139046;28;20042;-80
2024/01/26 02:19:14;;;;;;;9.02;7.20;;;11.00;99.90;;;;;;4136041;28;20042;-79
2024/01/26 02:21:15;;;;;;;10.20;7.53;;;11.00;99.90;;;;;;4137051;28;20080;-79
2024/01/26 02:23:22;;;;;;;10.23;7.35;;;11.00;99.90;;;;;;4140827;28;20038;-79
2024/01/26 02:25:22;;;;;;;9.40;7.80;;;11.00;99.90;;;;;;4158780;28;20494;-79
2024/01/26 02:27:23;;;;;;;11.15;6.72;;;11.00;99.90;;;;;;4139850;28;21571;-79
2024/01/26 02:29:23;;;;;;;9.00;7.05;;;11.00;99.90;;;;;;4157667;28;20099;-79
2024/01/26 02:31:24;;;;;;;9.80;6.72;;;11.00;99.90;;;;;;4138572;28;20034;-80
2024/01/26 02:33:25;;;;;;;9.98;7.55;;;11.00;99.90;;;;;;4142750;28;20030;-79
2024/01/26 02:35:25;;;;;;;8.32;6.55;;;11.00;99.90;;;;;;4158838;28;20069;-80
2024/01/26 02:37:26;;;;;;;8.52;6.15;;;10.90;99.90;;;;;;4139538;28;20527;-79
2024/01/26 02:39:28;;;;;;;9.50;6.63;;;11.00;99.90;;;;;;4142384;28;20038;-79
2024/01/26 02:41:29;;;;;;;11.02;6.57;;;11.00;99.90;;;;;;4142362;28;20033;-79
2024/01/26 02:43:30;;;;;;;9.18;6.63;;;11.00;99.90;;;;;;4159452;28;20502;-79
2024/01/26 02:45:30;;;;;;;9.45;6.35;;;11.00;99.90;;;;;;4138059;28;20250;-80
2024/01/26 02:47:31;;;;;;;7.90;6.25;;;11.00;99.90;;;;;;4124970;28;20054;-79
2024/01/26 02:49:32;;;;;;;10.30;6.40;;;11.00;99.90;;;;;;4141870;28;20113;-79
2024/01/26 02:51:32;;;;;;;6.22;5.38;;;11.00;99.90;;;;;;4157668;28;20041;-80
2024/01/26 02:53:33;;;;;;;8.95;6.30;;;11.00;99.90;;;;;;4139270;28;20122;-79
2024/01/26 02:55:33;;;;;;;11.50;6.13;;;11.00;99.90;;;;;;4142124;28;20034;-78
2024/01/26 02:57:34;;;;;;;7.25;5.72;;;11.00;99.90;;;;;;4142282;28;20415;-78
2024/01/26 02:59:34;;;;;;;7.57;5.93;;;11.00;99.90;;;;;;4143933;28;20065;-77
2024/01/26 03:01:35;;;;;;;6.85;5.25;;;11.00;99.90;;;;;;4143761;28;20033;-76
2024/01/26 03:03:36;;;;;;;7.00;5.50;;;11.00;99.90;;;;;;4159150;28;20140;-77
2024/01/26 03:05:36;;;;;;;8.63;6.57;;;11.00;99.90;;;;;;4138965;28;20423;-79
2024/01/26 03:07:37;;;;;;;7.97;6.13;;;11.00;99.90;;;;;;4141092;28;20662;-78
2024/01/26 03:09:37;;;;;;;9.82;5.80;;;11.00;99.90;;;;;;4139561;28;20067;-79
2024/01/26 03:11:39;;;;;;;8.07;5.60;;;11.00;99.90;;;;;;4141716;28;20565;-78
2024/01/26 03:13:40;;;;;;;6.95;5.22;;;11.00;99.90;;;;;;4143255;28;20431;-78
2024/01/26 03:15:41;;;;;;;7.63;5.35;;;11.00;99.90;;;;;;4143736;28;20122;-78
2024/01/26 03:17:41;;;;;;;8.45;5.82;;;11.00;99.90;;;;;;4138625;28;20034;-78
2024/01/26 03:19:42;;;;;;;6.75;5.28;;;11.00;99.90;;;;;;4141499;28;20038;-78
2024/01/26 03:21:43;;;;;;;5.55;4.90;;;11.00;99.90;;;;;;4140360;28;20038;-78
2024/01/26 03:23:44;;;;;;;8.65;5.43;;;11.00;99.90;;;;;;4143993;28;20510;-78
2024/01/26 03:25:44;;;;;;;5.70;4.68;;;11.00;99.90;;;;;;4143511;28;20034;-78
2024/01/26 03:27:45;;;;;;;10.52;5.00;;;11.00;99.90;;;;;;4143406;28;20092;-78
2024/01/26 03:29:46;;;;;;;6.15;5.00;;;11.00;99.90;;;;;;4136930;28;20053;-79
2024/01/26 03:31:46;;;;;;;5.85;4.95;;;11.00;99.90;;;;;;4139644;28;20072;-78
2024/01/26 03:33:47;;;;;;;7.05;5.10;;;11.00;99.90;;;;;;4139705;28;20038;-77
2024/01/26 03:35:47;;;;;;;5.70;4.30;;;11.00;99.90;;;;;;4143272;28;20053;-78
2024/01/26 03:37:48;;;;;;;6.47;4.72;;;11.00;99.90;;;;;;4140835;28;20034;-78
2024/01/26 03:39:49;;;;;;;5.93;4.63;;;11.00;99.90;;;;;;4138145;28;20038;-78
2024/01/26 03:41:49;;;;;;;4.95;4.15;;;10.90;99.90;;;;;;4158044;28;20029;-78
2024/01/26 03:43:53;;;;;;;5.65;4.13;;;10.90;99.90;;;;;;4134533;28;20026;-78
2024/01/26 03:45:53;;;;;;;5.05;3.88;;;10.90;99.90;;;;;;4137703;28;20671;-78
2024/01/26 03:47:54;;;;;;;5.43;3.85;;;10.90;99.90;;;;;;4157203;28;20026;-78
2024/01/26 03:49:54;;;;;;;5.90;4.10;;;11.00;99.90;;;;;;4137825;28;20050;-79
2024/01/26 03:51:55;;;;;;;4.32;3.67;;;11.00;99.90;;;;;;4157438;28;20052;-78
2024/01/26 03:53:56;;;;;;;7.00;4.10;;;11.00;99.90;;;;;;4141445;28;20038;-77
2024/01/26 03:55:56;;;;;;;4.65;3.90;;;11.00;99.90;;;;;;4141041;28;20474;-78
2024/01/26 03:57:57;;;;;;;4.28;3.40;;;11.00;99.90;;;;;;4143569;28;20053;-78
2024/01/26 03:59:58;;;;;;;6.53;3.67;;;11.00;99.90;;;;;;4141232;28;20050;-78
2024/01/26 04:01:58;;;;;;;4.15;3.50;;;10.90;99.90;;;;;;4140436;28;20057;-78
2024/01/26 04:04:00;;;;;;;7.63;3.90;;;11.00;99.90;;;;;;4142023;28;20045;-77
2024/01/26 04:06:03;;;;;;;5.72;3.85;;;10.90;99.90;;;;;;4138185;28;20075;-77
2024/01/26 04:08:04;;;;;;;4.45;3.50;;;10.90;99.90;;;;;;4143975;28;20512;-78
2024/01/26 04:10:05;;;;;;;5.32;3.85;;;10.90;99.90;;;;;;4142155;28;20034;-79
2024/01/26 04:12:06;;;;;;;4.65;3.90;;;10.90;99.90;;;;;;4140854;28;20392;-78
2024/01/26 04:14:06;;;;;;;5.88;3.97;;;10.90;99.90;;;;;;4140313;28;20053;-78
2024/01/26 04:16:07;;;;;;;6.68;3.80;;;10.90;99.90;;;;;;4139921;28;20491;-79
2024/01/26 04:18:08;;;;;;;6.95;3.83;;;10.90;99.90;;;;;;4143124;28;20062;-77
2024/01/26 04:20:09;;;;;;;4.57;3.30;;;10.90;99.90;;;;;;4141098;28;20400;-78
2024/01/26 04:22:09;;;;;;;5.75;3.53;;;10.90;99.90;;;;;;4141299;28;20053;-78
2024/01/26 04:24:10;;;;;;;5.93;3.80;;;10.90;99.90;;;;;;4141296;28;20505;-78
2024/01/26 04:26:11;;;;;;;5.35;4.13;;;10.90;99.90;;;;;;4141410;28;20360;-78
2024/01/26 04:28:12;;;;;;;3.50;3.10;;;10.90;99.90;;;;;;4158430;28;20048;-78
2024/01/26 04:30:14;;;;;;;5.45;3.63;;;10.90;99.90;;;;;;4139851;28;20034;-78
2024/01/26 04:32:14;;;;;;;4.95;3.83;;;10.90;99.90;;;;;;4141351;28;20034;-79
2024/01/26 04:34:15;;;;;;;5.53;4.38;;;10.90;99.90;;;;;;4139916;28;20182;-79
2024/01/26 04:36:16;;;;;;;4.93;4.03;;;10.90;99.90;;;;;;4141356;28;20041;-77
2024/01/26 04:38:16;;;;;;;5.82;4.15;;;11.00;99.90;;;;;;4142356;28;20487;-78
2024/01/26 04:40:17;;;;;;;3.88;3.42;;;10.90;99.90;;;;;;4139107;28;20040;-78
2024/01/26 04:42:18;;;;;;;3.78;3.30;;;10.90;99.90;;;;;;4142987;28;20029;-79
2024/01/26 04:44:19;;;;;;;5.68;4.35;;;10.90;99.90;;;;;;4142258;28;20448;-79
2024/01/26 04:46:20;;;;;;;5.20;4.00;;;10.90;99.90;;;;;;4140541;28;20323;-77
2024/01/26 04:48:21;;;;;;;7.13;3.75;;;11.00;99.90;;;;;;4140648;28;20133;-79
2024/01/26 04:50:21;;;;;;;4.35;3.42;;;10.90;99.90;;;;;;4137611;28;20705;-78
2024/01/26 04:52:22;;;;;;;5.35;3.47;;;10.90;99.90;;;;;;4143989;28;20042;-78
2024/01/26 04:54:23;;;;;;;4.32;3.40;;;11.00;99.90;;;;;;4158056;28;20498;-78
2024/01/26 04:56:23;;;;;;;7.43;3.95;;;11.00;99.90;;;;;;4156426;28;20415;-79
2024/01/26 04:58:24;;;;;;;3.90;2.90;;;11.00;99.90;;;;;;4154312;28;20072;-79
2024/01/26 05:00:25;;;;;;;5.15;3.60;;;11.00;99.90;;;;;;4137264;28;20065;-79
2024/01/26 05:02:25;;;;;;;3.97;3.42;;;11.00;99.90;;;;;;4150277;28;20160;-79
2024/01/26 05:04:26;;;;;;;4.72;3.47;;;11.00;99.90;;;;;;4154306;28;20480;-78
2024/01/26 05:06:26;;;;;;;5.30;3.67;;;11.00;99.90;;;;;;4156313;28;20038;-77
2024/01/26 05:08:27;;;;;;;4.95;3.17;;;11.00;99.90;;;;;;4139423;28;20030;-78
2024/01/26 05:10:28;;;;;;;4.25;3.03;;;11.00;99.90;;;;;;4157671;28;20036;-80
2024/01/26 05:12:28;;;;;;;2.92;2.60;;;11.00;99.90;;;;;;4158907;28;20081;-79
2024/01/26 05:14:29;;;;;;;4.20;3.03;;;11.00;99.90;;;;;;4159098;28;20394;-79
2024/01/26 05:16:29;;;;;;;5.35;2.88;;;11.00;99.90;;;;;;4157039;28;20033;-78
2024/01/26 05:18:30;;;;;;;4.38;2.90;;;11.00;99.90;;;;;;4140202;28;20042;-76
2024/01/26 05:20:31;;;;;;;3.75;2.95;;;11.00;99.90;;;;;;4155394;28;20789;-77
2024/01/26 05:22:32;;;;;;;3.55;2.70;;;10.90;99.90;;;;;;4154736;28;20483;-77
2024/01/26 05:24:32;;;;;;;3.88;2.80;;;11.00;99.90;;;;;;4141462;28;20395;-77
2024/01/26 05:26:38;;;;;;;4.72;2.70;;;11.00;99.90;;;;;;4138126;28;20416;-77
2024/01/26 05:28:39;;;;;;;3.90;2.63;;;10.90;99.90;;;;;;4155971;28;20387;-78
2024/01/26 05:30:40;;;;;;;4.80;2.80;;;10.90;99.90;;;;;;4155172;28;20045;-78
2024/01/26 05:32:40;;;;;;;3.35;2.67;;;10.90;99.90;;;;;;4156882;28;20495;-79
2024/01/26 05:34:41;;;;;;;3.10;2.80;;;10.90;99.90;;;;;;4140939;28;21385;-78
2024/01/26 05:36:42;;;;;;;3.20;2.42;;;11.00;99.90;;;;;;4156976;28;20030;-79
2024/01/26 05:38:42;;;;;;;5.60;2.72;;;10.90;99.90;;;;;;4158153;28;20045;-79
2024/01/26 05:40:43;;;;;;;3.67;2.42;;;11.00;99.90;;;;;;4155989;28;20472;-79
2024/01/26 05:42:44;;;;;;;3.30;2.30;;;11.00;99.90;;;;;;4140489;28;20448;-79
2024/01/26 05:44:44;;;;;;;3.92;2.80;;;10.90;99.90;;;;;;4161632;28;20479;-80
2024/01/26 05:46:45;;;;;;;2.78;2.03;;;10.90;99.90;;;;;;4158906;28;20022;-79
2024/01/26 05:48:46;;;;;;;2.83;2.50;;;11.00;99.90;;;;;;4158626;28;20037;-79
2024/01/26 05:50:47;;;;;;;4.15;2.60;;;11.00;99.90;;;;;;4159571;28;20037;-80
2024/01/26 05:52:48;;;;;;;3.30;2.25;;;10.90;99.90;;;;;;4159696;28;20033;-77
2024/01/26 05:54:49;;;;;;;3.53;2.72;;;11.00;99.90;;;;;;4161338;28;20029;-80
2024/01/26 05:56:49;;;;;;;3.53;2.40;;;11.00;99.90;;;;;;4157435;28;20763;-79
2024/01/26 05:58:52;;;;;;;1.98;1.77;;;11.00;99.90;;;;;;4159047;28;20399;-78
2024/01/26 06:00:52;;;;;;;4.07;2.70;;;11.00;99.90;;;;;;4157193;28;20037;-79
2024/01/26 06:02:53;;;;;;;3.80;2.20;;;11.00;99.90;;;;;;4157206;28;20664;-78
2024/01/26 06:04:54;;;;;;;3.70;2.63;;;11.00;99.90;;;;;;4159453;28;20634;-79
2024/01/26 06:06:54;;;;;;;4.70;2.47;;;11.00;99.90;;;;;;4152776;28;20059;-79
2024/01/26 06:08:55;;;;;;;3.22;2.60;;;11.00;99.90;;;;;;4157153;28;20392;-79
2024/01/26 06:10:56;;;;;;;5.45;2.45;;;11.00;99.90;;;;;;4141960;28;20741;-80
2024/01/26 06:12:57;;;;;;;2.67;2.10;;;11.00;99.90;;;;;;4146446;28;20045;-79
2024/01/26 06:14:58;;;;;;;3.63;2.22;;;11.00;99.90;;;;;;4142217;28;20768;-79
2024/01/26 06:16:58;;;;;;;3.60;2.30;;;11.00;99.90;;;;;;4158773;28;20542;-79
2024/01/26 06:18:59;;;;;;;4.95;2.58;;;11.00;99.90;;;;;;4160923;28;20045;-79
2024/01/26 06:20:59;;;;;;;3.80;2.97;;;11.10;99.90;;;;;;4155601;28;22361;-79
2024/01/26 06:23:03;;;;;;;3.72;2.80;;;11.10;99.90;;;;;;4156798;28;20460;-80
2024/01/26 06:25:04;;;;;;;3.28;2.58;;;11.10;99.90;;;;;;4162212;28;20049;-79
2024/01/26 06:27:05;;;;;;;4.32;2.67;;;11.10;99.90;;;;;;4156778;28;20048;-80
2024/01/26 06:29:05;;;;;;;3.45;2.17;;;11.10;99.90;;;;;;4153326;28;20034;-76
2024/01/26 06:31:06;;;;;;;3.00;2.30;;;11.10;99.90;;;;;;4149440;28;20038;-78
2024/01/26 06:33:06;;;;;;;6.95;2.65;;;11.10;99.90;;;;;;4158493;28;20042;-79
2024/01/26 06:35:07;;;;;;;4.45;2.75;;;11.10;99.90;;;;;;4155558;28;20030;-79
2024/01/26 06:37:08;;;;;;;4.45;2.95;;;11.10;99.90;;;;;;4151589;28;20053;-77
2024/01/26 06:39:08;;;;;;;4.57;2.97;;;11.00;99.90;;;;;;4142718;28;20072;-77
2024/01/26 06:41:09;;;;;;;3.28;2.47;;;11.00;99.90;;;;;;4156938;28;20116;-77
2024/01/26 06:43:10;;;;;;;5.20;2.95;;;11.00;99.90;;;;;;4156916;28;20026;-79
2024/01/26 06:45:12;;;;;;;4.63;3.00;;;11.00;99.90;;;;;;4153854;28;20116;-78
2024/01/26 06:47:13;;;;;;;3.78;3.13;;;11.00;99.90;;;;;;4149988;28;20038;-79
2024/01/26 06:49:13;;;;;;;2.72;2.33;;;11.00;99.90;;;;;;4154963;28;20442;-78
2024/01/26 06:51:14;;;;;;;4.53;2.53;;;11.00;99.90;;;;;;4137316;28;20498;-85
2024/01/26 06:53:15;;;;;;;4.10;2.83;;;11.00;99.90;;;;;;4142474;28;20115;-84
2024/01/26 06:55:16;;;;;;;3.03;2.60;;;11.10;99.90;;;;;;4160597;28;20041;-87
2024/01/26 06:57:16;;;;;;;4.45;2.63;;;11.00;99.90;;;;;;4126918;28;20045;-86
2024/01/26 06:59:18;;;;;;;3.57;2.60;;;11.00;99.90;;;;;;4142003;28;20124;-78
2024/01/26 07:01:19;;;;;;;4.85;2.80;;;11.00;99.90;;;;;;4136674;28;20037;-78
2024/01/26 07:03:19;;;;;;;4.55;2.70;;;11.00;99.90;;;;;;4158309;28;20026;-77
2024/01/26 07:05:20;;;;;;;3.72;2.97;;;11.00;99.90;;;;;;4142600;28;20111;-77
2024/01/26 07:07:21;;;;;;;4.95;2.65;;;11.00;99.90;;;;;;4158930;28;20115;-77
2024/01/26 07:09:21;;;;;;;3.15;2.60;;;11.00;99.90;;;;;;4136960;28;20080;-78
2024/01/26 07:11:24;;;;;;;5.20;2.97;;;11.00;99.90;;;;;;4135544;28;20422;-78
2024/01/26 07:13:25;;;;;;;3.67;2.88;;;11.10;99.90;;;;;;4140670;28;20022;-78
2024/01/26 07:15:25;;;;;;;4.72;3.05;;;11.00;99.90;;;;;;4135691;28;20396;-69
2024/01/26 07:17:26;;;;;;;4.25;2.85;;;11.00;99.90;;;;;;4155033;28;20049;-79
2024/01/26 07:19:27;;;;;;;7.65;3.70;;;11.00;99.90;;;;;;4137892;28;20097;-79
2024/01/26 07:21:27;;;;;;;5.65;3.40;;;11.00;99.90;;;;;;4154288;28;20037;-80
2024/01/26 07:23:28;;;;;;;6.15;3.70;;;11.00;99.90;;;;;;4118564;28;22650;-79
2024/01/26 07:25:30;;;;;;;6.55;3.60;;;11.00;99.90;;;;;;4153936;28;20041;-80
2024/01/26 07:27:30;;;;;;;6.78;3.20;;;11.00;99.90;;;;;;4149956;28;20112;-80
2024/01/26 07:29:32;;;;;;;5.35;3.33;;;11.00;99.90;;;;;;4151813;28;20069;-79
2024/01/26 07:31:32;;;;;;;4.53;3.45;;;11.00;99.90;;;;;;4152247;28;20057;-78
2024/01/26 07:33:33;;;;;;;4.30;2.80;;;10.90;99.90;;;;;;4152809;28;20036;-78
2024/01/26 07:35:34;;;;;;;9.02;4.50;;;11.00;99.90;;;;;;4154981;28;20127;-78
2024/01/26 07:37:34;;;;;;;5.00;3.70;;;10.90;99.90;;;;;;4153865;28;20510;-78
2024/01/26 07:39:35;;;;;;;4.22;2.55;;;10.90;99.90;;;;;;4152563;28;20060;-78
2024/01/26 07:41:36;;;;;;;5.75;3.60;;;10.90;99.90;;;;;;4136655;28;20432;-77
2024/01/26 07:43:37;;;;;;;6.47;3.30;;;11.00;99.90;;;;;;4154158;28;20037;-77
2024/01/26 07:45:37;;;;;;;4.63;3.30;;;10.90;99.90;;;;;;4154186;28;20116;-77
2024/01/26 07:47:38;;;;;;;4.78;3.42;;;10.90;99.90;;;;;;4153958;28;20045;-77
2024/01/26 07:49:38;;;;;;;4.45;3.40;;;10.90;99.90;;;;;;4153894;28;20427;-80
2024/01/26 07:51:39;;;;;;;7.47;3.47;;;11.00;99.90;;;;;;4136491;28;20037;-78
2024/01/26 07:53:40;;;;;;;5.90;4.05;;;10.90;99.90;;;;;;4139084;28;20040;-79
2024/01/26 07:55:41;;;;;;;4.07;3.45;;;10.90;99.90;;;;;;4136735;28;20526;-79
2024/01/26 07:57:41;;;;;;;6.40;3.22;;;10.90;99.90;;;;;;4136612;28;20037;-79
2024/01/26 07:59:42;;;;;;;4.82;2.95;;;10.90;99.90;;;;;;4138866;28;20320;-78
2024/01/26 08:01:42;;;;;;;5.32;3.38;;;10.90;99.90;;;;;;4138470;28;20282;-80
2024/01/26 08:03:43;;;;;;;4.88;2.90;;;11.00;99.90;;;;;;4136923;28;20056;-81
2024/01/26 08:05:44;;;;;;;6.47;3.72;;;11.00;99.90;;;;;;4139807;28;20088;-80
2024/01/26 08:07:45;;;;;;;7.60;3.63;;;10.90;99.90;;;;;;4155097;28;20030;-77
2024/01/26 08:09:45;;;;;;;4.68;3.08;;;11.00;99.90;;;;;;4154931;28;20390;-78
2024/01/26 08:11:46;;;;;;;5.22;3.00;;;11.00;99.90;;;;;;4151202;28;20029;-79
2024/01/26 08:13:46;;;;;;;5.22;3.67;;;11.00;99.90;;;;;;4125259;28;20034;-78
2024/01/26 08:15:47;;;;;;;4.13;3.25;;;11.00;99.90;;;;;;4138834;28;20550;-79
2024/01/26 08:17:48;;;;;;;3.50;2.72;;;11.00;99.90;;;;;;4136563;28;20466;-82
2024/01/26 08:19:48;;;;;;;4.88;3.30;;;11.00;99.90;;;;;;4136729;28;20734;-78
2024/01/26 08:21:49;;;;;;;3.97;3.10;;;11.10;99.90;;;;;;4138798;28;20411;-79
2024/01/26 08:23:50;;;;;;;5.57;3.45;;;11.10;99.90;;;;;;4138624;28;20068;-79
2024/01/26 08:25:50;;;;;;;4.10;3.40;;;11.10;99.90;;;;;;4134819;28;20507;-79
2024/01/26 08:27:53;;;;;;;6.97;3.60;;;11.10;99.90;;;;;;4133990;28;20034;-83
2024/01/26 08:29:53;;;;;;;5.07;3.60;;;11.10;99.90;;;;;;4137170;28;20034;-82
2024/01/26 08:31:54;;;;;;;4.95;3.50;;;11.10;99.90;;;;;;4154415;28;20095;-84
2024/01/26 08:33:55;;;;;;;3.67;3.25;;;11.20;99.90;;;;;;4153681;28;20412;-83
2024/01/26 08:35:55;;;;;;;4.85;3.13;;;11.20;99.90;;;;;;4135406;28;20038;-83
2024/01/26 08:37:56;;;;;;;4.07;3.20;;;11.20;99.90;;;;;;4155986;28;20540;-84
2024/01/26 08:39:57;;;;;;;3.60;2.72;;;11.20;99.90;;;;;;4138958;28;20184;-82
2024/01/26 08:41:58;;;;;;;4.55;3.13;;;11.30;99.90;;;;;;4154526;28;20033;-83
2024/01/26 08:43:58;;;;;;;5.93;3.70;;;11.30;99.90;;;;;;4134237;28;20460;-83
2024/01/26 08:45:59;;;;;;;4.18;2.80;;;11.30;99.90;;;;;;4151969;28;20414;-84
2024/01/26 08:47:59;;;;;;;3.40;2.70;;;11.30;99.90;;;;;;4135696;28;21371;-83
2024/01/26 08:50:00;;;;;;;6.97;3.55;;;11.30;99.90;;;;;;4137448;28;20045;-84
2024/01/26 08:52:01;;;;;;;5.95;3.20;;;11.40;99.90;;;;;;4136299;28;20065;-84
2024/01/26 08:54:02;;;;;;;4.45;3.10;;;11.40;99.90;;;;;;4121318;28;20034;-81
2024/01/26 08:56:05;;;;;;;4.47;3.53;;;11.40;99.90;;;;;;4137699;28;20038;-83
2024/01/26 08:58:06;;;;;;;5.38;3.92;;;11.40;99.90;;;;;;4153621;28;20092;-84
2024/01/26 09:00:09;;;;;;;4.93;3.50;;;11.40;99.90;;;;;;4152243;28;20060;-84
2024/01/26 09:02:09;;;;;;;7.10;3.45;;;11.40;99.90;;;;;;4121897;28;20034;-84
2024/01/26 09:04:10;;;;;;;5.13;3.15;;;11.40;99.90;;;;;;4137286;28;20054;-81
2024/01/26 09:06:10;;;;;;;5.05;3.17;;;11.40;99.90;;;;;;4152408;28;20026;-81
2024/01/26 09:08:11;;;;;;;4.97;3.00;;;11.50;99.90;;;;;;4137217;28;20512;-78
2024/01/26 09:10:12;;;;;;;3.47;2.95;;;11.50;99.90;;;;;;4141485;28;20034;-77
2024/01/26 09:12:12;;;;;;;6.25;3.80;;;11.50;99.90;;;;;;4122929;28;20038;-78
2024/01/26 09:14:14;;;;;;;4.20;2.80;;;11.50;99.90;;;;;;4141471;28;20088;-77
2024/01/26 09:16:14;;;;;;;5.63;3.22;;;11.50;99.90;;;;;;4156439;28;20086;-76
2024/01/26 09:18:15;;;;;;;4.53;2.78;;;11.50;99.90;;;;;;4149766;28;20088;-77
2024/01/26 09:20:15;;;;;;;3.58;2.60;;;11.50;99.90;;;;;;4140873;28;20740;-77
2024/01/26 09:22:16;;;;;;;5.57;3.03;;;11.50;99.90;;;;;;4139127;28;20048;-77
2024/01/26 09:24:17;;;;;;;3.85;2.95;;;11.50;99.90;;;;;;4142394;28;20041;-78
2024/01/26 09:26:17;;;;;;;4.25;3.05;;;11.50;99.90;;;;;;4137811;28;20054;-77
2024/01/26 09:28:18;;;;;;;3.78;2.85;;;11.50;99.90;;;;;;4142239;28;20103;-78
2024/01/26 09:30:19;;;;;;;6.03;3.30;;;11.60;99.90;;;;;;4139088;28;20507;-78
2024/01/26 09:32:20;;;;;;;3.28;2.60;;;11.60;99.90;;;;;;4125198;28;20073;-79
2024/01/26 09:34:20;;;;;;;2.80;2.28;;;11.60;99.90;;;;;;4141556;28;20073;-79
2024/01/26 09:36:21;;;;;;;3.78;2.50;;;11.60;99.90;;;;;;4155841;28;20368;-78
2024/01/26 09:38:24;;;;;;;3.53;2.70;;;11.60;99.90;;;;;;4140420;28;20485;-77
2024/01/26 09:40:25;;;;;;;3.17;2.35;;;11.60;99.90;;;;;;4136078;28;20041;-77
2024/01/26 09:42:26;;;;;;;3.47;2.55;;;11.60;99.90;;;;;;4137169;28;20505;-76
2024/01/26 09:44:26;;;;;;;3.05;2.28;;;11.70;99.90;;;;;;4138403;28;20026;-77
2024/01/26 09:46:29;;;;;;;4.35;2.58;;;11.70;99.90;;;;;;4151805;28;20055;-77
2024/01/26 09:48:32;;;;;;;3.70;2.60;;;11.70;99.90;;;;;;4138243;28;20499;-77
2024/01/26 09:50:33;;;;;;;;;;;11.70;99.90;;;;;;4129763;28;20029;-77
2024/01/26 09:52:35;;;;;;;5.45;2.50;;;11.70;99.90;;;;;;4122711;28;19936;-77
2024/01/26 09:54:36;;;;;;;5.45;3.00;;;11.70;99.90;;;;;;4146054;28;20091;-77
2024/01/26 09:56:40;;;;;;;3.40;2.30;;;11.70;99.90;;;;;;4145955;28;20121;-77
2024/01/26 09:58:40;;;;;;;2.83;2.45;;;11.70;99.90;;;;;;4140867;28;20052;-77
2024/01/26 10:00:44;;;;;;;3.20;2.40;;;11.70;99.90;;;;;;4144236;28;20383;-78
2024/01/26 10:02:45;;;;;;;4.68;2.78;;;11.70;99.90;;;;;;4140836;28;20607;-78
2024/01/26 10:04:46;;;;;;;3.25;2.50;;;11.70;99.90;;;;;;4140549;28;20026;-78
2024/01/26 10:06:48;;;;;;;5.68;2.60;;;11.70;99.90;;;;;;4138499;28;20044;-78
2024/01/26 10:08:49;;;;;;;3.40;2.60;;;11.70;99.90;;;;;;4137925;28;20435;-84
2024/01/26 10:10:50;;;;;;;3.80;2.47;;;11.70;99.90;;;;;;4138635;28;20029;-84
2024/01/26 10:12:50;;;;;;;4.47;2.42;;;11.70;99.90;;;;;;4157828;28;20044;-84
2024/01/26 10:15:05;;;;;;;4.13;2.90;;;11.70;99.90;;;;;;4139737;28;20056;-83
2024/01/26 10:17:05;;;;;;;4.38;2.70;;;11.70;99.90;;;;;;4140307;28;20045;-85
2024/01/26 10:19:06;;;;;;;3.05;2.25;;;11.70;99.90;;;;;;4141655;28;20483;-79
2024/01/26 10:21:07;;;;;;;5.57;2.40;;;11.70;99.90;;;;;;4156030;28;20124;-80
2024/01/26 10:23:08;;;;;;;4.15;2.40;;;11.70;99.90;;;;;;4140381;28;20042;-79
2024/01/26 10:25:09;;;;;;;5.15;2.80;;;11.70;99.90;;;;;;4139218;28;20088;-78
2024/01/26 10:27:10;;;;;;;7.03;2.25;;;11.70;99.90;;;;;;4137768;28;20034;-78